sensor_id;sensor_type;location;lat;lon;timestamp;P1;durP1;ratioP1;P2;durP2;ratioP2
47513;SDS011;33951;51.988;5.910;2023-04-24T04:01:06;72.18;;;48.13;;
47513;SDS011;33951;51.988;5.910;2023-04-24T04:03:43;77.97;;;48.78;;
47513;SDS011;33951;51.988;5.910;2023-04-24T04:06:11;72.47;;;50.63;;
47513;SDS011;33951;51.988;5.910;2023-04-24T04:08:54;72.60;;;49.40;;
47513;SDS011;33951;51.988;5.910;2023-04-24T04:11:31;75.88;;;51.15;;
47513;SDS011;33951;51.988;5.910;2023-04-24T04:14:02;73.55;;;51.17;;
47513;SDS011;33951;51.988;5.910;2023-04-24T04:16:41;75.88;;;51.15;;
47513;SDS011;33951;51.988;5.910;2023-04-24T04:19:09;77.00;;;51.72;;
47513;SDS011;33951;51.988;5.910;2023-04-24T04:21:35;78.70;;;48.95;;
47513;SDS011;33951;51.988;5.910;2023-04-24T04:24:00;76.55;;;50.20;;
47513;SDS011;33951;51.988;5.910;2023-04-24T04:26:37;76.97;;;49.03;;
47513;SDS011;33951;51.988;5.910;2023-04-24T04:29:08;71.22;;;49.42;;
47513;SDS011;33951;51.988;5.910;2023-04-24T04:31:47;73.97;;;45.50;;
47513;SDS011;33951;51.988;5.910;2023-04-24T04:34:19;68.85;;;46.45;;
47513;SDS011;33951;51.988;5.910;2023-04-24T04:36:45;68.90;;;46.92;;
47513;SDS011;33951;51.988;5.910;2023-04-24T04:39:13;63.92;;;44.72;;
47513;SDS011;33951;51.988;5.910;2023-04-24T04:41:48;68.15;;;45.22;;
47513;SDS011;33951;51.988;5.910;2023-04-24T04:44:14;64.07;;;45.22;;
47513;SDS011;33951;51.988;5.910;2023-04-24T04:46:45;63.42;;;45.60;;
47513;SDS011;33951;51.988;5.910;2023-04-24T04:49:14;67.47;;;43.83;;
47513;SDS011;33951;51.988;5.910;2023-04-24T04:51:44;70.22;;;45.35;;
47513;SDS011;33951;51.988;5.910;2023-04-24T04:54:25;62.78;;;42.22;;
47513;SDS011;33951;51.988;5.910;2023-04-24T04:56:59;61.40;;;41.80;;
47513;SDS011;33951;51.988;5.910;2023-04-24T04:59:55;61.40;;;40.72;;
47513;SDS011;33951;51.988;5.910;2023-04-24T05:02:56;60.90;;;41.50;;
47513;SDS011;33951;51.988;5.910;2023-04-24T05:15:57;60.50;;;41.00;;
47513;SDS011;33951;51.988;5.910;2023-04-24T05:22:44;57.95;;;37.67;;
47513;SDS011;33951;51.988;5.910;2023-04-24T05:32:11;60.65;;;37.72;;
47513;SDS011;33951;51.988;5.910;2023-04-24T05:39:11;47.35;;;33.22;;
47513;SDS011;33951;51.988;5.910;2023-04-24T05:49:07;54.67;;;35.40;;
47513;SDS011;33951;51.988;5.910;2023-04-24T06:22:00;39.75;;;24.42;;
47513;SDS011;33951;51.988;5.910;2023-04-24T06:31:45;31.65;;;22.30;;
47513;SDS011;33951;51.988;5.910;2023-04-24T06:34:45;34.22;;;21.77;;
47513;SDS011;33951;51.988;5.910;2023-04-24T06:41:10;33.30;;;21.43;;
47513;SDS011;33951;51.988;5.910;2023-04-24T06:43:54;23.45;;;18.80;;
47513;SDS011;33951;51.988;5.910;2023-04-24T06:49:36;29.00;;;20.45;;
47513;SDS011;33951;51.988;5.910;2023-04-24T06:55:09;22.27;;;14.60;;
47513;SDS011;33951;51.988;5.910;2023-04-24T06:57:43;19.73;;;14.07;;
47513;SDS011;33951;51.988;5.910;2023-04-24T07:00:57;16.10;;;11.82;;
47513;SDS011;33951;51.988;5.910;2023-04-24T07:03:46;11.40;;;8.40;;
47513;SDS011;33951;51.988;5.910;2023-04-24T07:06:18;12.82;;;9.90;;
47513;SDS011;33951;51.988;5.910;2023-04-24T07:08:54;14.60;;;10.15;;
47513;SDS011;33951;51.988;5.910;2023-04-24T07:11:50;14.27;;;10.50;;
47513;SDS011;33951;51.988;5.910;2023-04-24T07:14:22;11.55;;;8.68;;
47513;SDS011;33951;51.988;5.910;2023-04-24T07:17:08;9.88;;;7.72;;
47513;SDS011;33951;51.988;5.910;2023-04-24T07:19:51;11.93;;;8.75;;
47513;SDS011;33951;51.988;5.910;2023-04-24T07:25:44;7.07;;;6.10;;
47513;SDS011;33951;51.988;5.910;2023-04-24T07:28:42;8.25;;;6.50;;
47513;SDS011;33951;51.988;5.910;2023-04-24T07:31:23;8.68;;;6.80;;
47513;SDS011;33951;51.988;5.910;2023-04-24T07:34:22;9.60;;;7.28;;
47513;SDS011;33951;51.988;5.910;2023-04-24T07:36:55;8.05;;;6.50;;
47513;SDS011;33951;51.988;5.910;2023-04-24T07:42:51;8.15;;;5.55;;
47513;SDS011;33951;51.988;5.910;2023-04-24T07:45:29;9.57;;;6.47;;
47513;SDS011;33951;51.988;5.910;2023-04-24T07:48:04;9.35;;;6.95;;
47513;SDS011;33951;51.988;5.910;2023-04-24T07:50:43;8.82;;;7.63;;
47513;SDS011;33951;51.988;5.910;2023-04-24T07:53:31;12.85;;;8.73;;
47513;SDS011;33951;51.988;5.910;2023-04-24T07:56:07;13.02;;;8.85;;
47513;SDS011;33951;51.988;5.910;2023-04-24T07:58:38;16.40;;;10.48;;
47513;SDS011;33951;51.988;5.910;2023-04-24T08:03:32;21.58;;;11.95;;
47513;SDS011;33951;51.988;5.910;2023-04-24T08:06:05;15.70;;;11.57;;
47513;SDS011;33951;51.988;5.910;2023-04-24T08:08:57;15.15;;;11.38;;
47513;SDS011;33951;51.988;5.910;2023-04-24T08:11:51;19.77;;;13.05;;
47513;SDS011;33951;51.988;5.910;2023-04-24T08:14:18;20.02;;;13.75;;
47513;SDS011;33951;51.988;5.910;2023-04-24T08:17:38;18.40;;;12.48;;
47513;SDS011;33951;51.988;5.910;2023-04-24T08:20:27;18.92;;;12.65;;
47513;SDS011;33951;51.988;5.910;2023-04-24T08:26:47;22.23;;;14.43;;
47513;SDS011;33951;51.988;5.910;2023-04-24T08:29:35;20.05;;;13.63;;
47513;SDS011;33951;51.988;5.910;2023-04-24T08:32:32;20.77;;;12.38;;
47513;SDS011;33951;51.988;5.910;2023-04-24T08:35:07;22.15;;;13.43;;
47513;SDS011;33951;51.988;5.910;2023-04-24T08:37:52;34.20;;;15.75;;
47513;SDS011;33951;51.988;5.910;2023-04-24T08:40:39;21.75;;;15.13;;
47513;SDS011;33951;51.988;5.910;2023-04-24T08:43:12;19.98;;;15.48;;
47513;SDS011;33951;51.988;5.910;2023-04-24T08:45:51;26.02;;;17.27;;
47513;SDS011;33951;51.988;5.910;2023-04-24T08:48:32;25.20;;;16.75;;
47513;SDS011;33951;51.988;5.910;2023-04-24T08:51:05;29.50;;;17.25;;
47513;SDS011;33951;51.988;5.910;2023-04-24T08:53:47;26.35;;;17.50;;
47513;SDS011;33951;51.988;5.910;2023-04-24T08:56:24;31.08;;;16.38;;
47513;SDS011;33951;51.988;5.910;2023-04-24T08:59:02;23.48;;;16.42;;
47513;SDS011;33951;51.988;5.910;2023-04-24T09:01:49;20.95;;;15.05;;
47513;SDS011;33951;51.988;5.910;2023-04-24T09:04:30;27.38;;;14.02;;
47513;SDS011;33951;51.988;5.910;2023-04-24T09:09:59;18.10;;;10.02;;
47513;SDS011;33951;51.988;5.910;2023-04-24T09:12:32;21.30;;;9.95;;
47513;SDS011;33951;51.988;5.910;2023-04-24T09:15:23;19.70;;;9.18;;
47513;SDS011;33951;51.988;5.910;2023-04-24T09:17:54;17.23;;;9.52;;
47513;SDS011;33951;51.988;5.910;2023-04-24T09:23:37;21.52;;;9.52;;
47513;SDS011;33951;51.988;5.910;2023-04-24T09:26:09;20.80;;;8.80;;
47513;SDS011;33951;51.988;5.910;2023-04-24T09:28:42;24.63;;;9.30;;
47513;SDS011;33951;51.988;5.910;2023-04-24T09:31:14;23.10;;;7.78;;
47513;SDS011;33951;51.988;5.910;2023-04-24T09:34:00;24.77;;;7.40;;
47513;SDS011;33951;51.988;5.910;2023-04-24T09:36:53;20.73;;;6.45;;
47513;SDS011;33951;51.988;5.910;2023-04-24T09:39:26;13.82;;;5.20;;
47513;SDS011;33951;51.988;5.910;2023-04-24T09:42:21;18.70;;;6.25;;
47513;SDS011;33951;51.988;5.910;2023-04-24T09:51:43;17.60;;;5.32;;
47513;SDS011;33951;51.988;5.910;2023-04-24T10:19:46;20.92;;;5.55;;
47513;SDS011;33951;51.988;5.910;2023-04-24T10:35:20;12.00;;;4.63;;
47513;SDS011;33951;51.988;5.910;2023-04-24T10:38:41;13.03;;;3.93;;
47513;SDS011;33951;51.988;5.910;2023-04-24T10:41:13;14.50;;;5.03;;
47513;SDS011;33951;51.988;5.910;2023-04-24T10:43:46;10.13;;;4.60;;
47513;SDS011;33951;51.988;5.910;2023-04-24T10:46:19;10.98;;;3.53;;
47513;SDS011;33951;51.988;5.910;2023-04-24T10:48:53;13.77;;;4.15;;
47513;SDS011;33951;51.988;5.910;2023-04-24T10:51:42;14.75;;;3.83;;
47513;SDS011;33951;51.988;5.910;2023-04-24T10:54:27;9.05;;;3.28;;
47513;SDS011;33951;51.988;5.910;2023-04-24T11:02:50;9.77;;;2.83;;
47513;SDS011;33951;51.988;5.910;2023-04-24T11:10:58;17.95;;;3.30;;
47513;SDS011;33951;51.988;5.910;2023-04-24T11:16:32;15.05;;;3.90;;
47513;SDS011;33951;51.988;5.910;2023-04-24T11:19:03;9.80;;;2.10;;
47513;SDS011;33951;51.988;5.910;2023-04-24T11:21:31;9.40;;;2.28;;
47513;SDS011;33951;51.988;5.910;2023-04-24T11:26:52;6.03;;;2.30;;
47513;SDS011;33951;51.988;5.910;2023-04-24T11:29:20;11.00;;;2.28;;
47513;SDS011;33951;51.988;5.910;2023-04-24T11:31:46;7.60;;;2.63;;
47513;SDS011;33951;51.988;5.910;2023-04-24T11:34:17;6.07;;;1.92;;
47513;SDS011;33951;51.988;5.910;2023-04-24T11:36:45;7.10;;;2.00;;
47513;SDS011;33951;51.988;5.910;2023-04-24T11:39:17;6.40;;;1.98;;
47513;SDS011;33951;51.988;5.910;2023-04-24T11:41:46;6.50;;;1.55;;
47513;SDS011;33951;51.988;5.910;2023-04-24T11:44:22;6.65;;;1.58;;
47513;SDS011;33951;51.988;5.910;2023-04-24T11:49:28;11.50;;;1.83;;
47513;SDS011;33951;51.988;5.910;2023-04-24T11:51:57;5.32;;;1.60;;
47513;SDS011;33951;51.988;5.910;2023-04-24T11:54:29;2.78;;;1.30;;
47513;SDS011;33951;51.988;5.910;2023-04-24T11:56:55;4.03;;;1.40;;
47513;SDS011;33951;51.988;5.910;2023-04-24T11:59:21;4.03;;;1.20;;
47513;SDS011;33951;51.988;5.910;2023-04-24T12:01:50;4.38;;;1.40;;
47513;SDS011;33951;51.988;5.910;2023-04-24T12:04:18;3.92;;;1.58;;
47513;SDS011;33951;51.988;5.910;2023-04-24T12:07:02;3.17;;;1.52;;
47513;SDS011;33951;51.988;5.910;2023-04-24T12:12:25;8.88;;;1.70;;
47513;SDS011;33951;51.988;5.910;2023-04-24T12:14:56;4.65;;;1.52;;
47513;SDS011;33951;51.988;5.910;2023-04-24T12:20:54;3.63;;;2.20;;
47513;SDS011;33951;51.988;5.910;2023-04-24T12:23:35;7.78;;;1.98;;
47513;SDS011;33951;51.988;5.910;2023-04-24T12:26:03;3.20;;;1.60;;
47513;SDS011;33951;51.988;5.910;2023-04-24T12:28:34;11.18;;;1.98;;
47513;SDS011;33951;51.988;5.910;2023-04-24T12:31:03;7.15;;;1.85;;
47513;SDS011;33951;51.988;5.910;2023-04-24T12:33:34;4.95;;;2.08;;
47513;SDS011;33951;51.988;5.910;2023-04-24T12:36:03;7.53;;;1.83;;
47513;SDS011;33951;51.988;5.910;2023-04-24T12:38:30;4.22;;;1.30;;
47513;SDS011;33951;51.988;5.910;2023-04-24T12:41:03;3.20;;;1.25;;
47513;SDS011;33951;51.988;5.910;2023-04-24T12:43:33;6.90;;;2.05;;
47513;SDS011;33951;51.988;5.910;2023-04-24T12:46:01;4.80;;;1.50;;
47513;SDS011;33951;51.988;5.910;2023-04-24T12:48:30;7.80;;;1.63;;
47513;SDS011;33951;51.988;5.910;2023-04-24T12:51:03;6.53;;;1.60;;
47513;SDS011;33951;51.988;5.910;2023-04-24T12:53:32;5.68;;;1.80;;
47513;SDS011;33951;51.988;5.910;2023-04-24T12:56:01;4.43;;;1.67;;
47513;SDS011;33951;51.988;5.910;2023-04-24T12:58:27;6.30;;;1.30;;
47513;SDS011;33951;51.988;5.910;2023-04-24T13:00:55;7.38;;;1.40;;
47513;SDS011;33951;51.988;5.910;2023-04-24T13:03:21;5.45;;;1.75;;
47513;SDS011;33951;51.988;5.910;2023-04-24T13:05:49;4.35;;;1.05;;
47513;SDS011;33951;51.988;5.910;2023-04-24T13:08:18;6.15;;;1.38;;
47513;SDS011;33951;51.988;5.910;2023-04-24T13:10:46;8.02;;;1.60;;
47513;SDS011;33951;51.988;5.910;2023-04-24T13:13:14;6.30;;;1.77;;
47513;SDS011;33951;51.988;5.910;2023-04-24T13:15:40;4.07;;;1.20;;
47513;SDS011;33951;51.988;5.910;2023-04-24T13:18:11;5.25;;;1.60;;
47513;SDS011;33951;51.988;5.910;2023-04-24T13:20:44;4.03;;;1.35;;
47513;SDS011;33951;51.988;5.910;2023-04-24T13:23:14;6.82;;;2.10;;
47513;SDS011;33951;51.988;5.910;2023-04-24T13:25:49;4.88;;;1.70;;
47513;SDS011;33951;51.988;5.910;2023-04-24T13:28:25;4.20;;;1.70;;
47513;SDS011;33951;51.988;5.910;2023-04-24T13:30:54;9.60;;;1.83;;
47513;SDS011;33951;51.988;5.910;2023-04-24T13:33:26;13.05;;;2.50;;
47513;SDS011;33951;51.988;5.910;2023-04-24T13:35:51;7.43;;;2.00;;
47513;SDS011;33951;51.988;5.910;2023-04-24T13:38:17;7.43;;;2.05;;
47513;SDS011;33951;51.988;5.910;2023-04-24T13:40:48;7.90;;;2.33;;
47513;SDS011;33951;51.988;5.910;2023-04-24T13:43:14;7.20;;;2.15;;
47513;SDS011;33951;51.988;5.910;2023-04-24T13:45:45;13.20;;;2.67;;
47513;SDS011;33951;51.988;5.910;2023-04-24T13:48:14;7.95;;;2.75;;
47513;SDS011;33951;51.988;5.910;2023-04-24T13:51:00;4.18;;;1.67;;
47513;SDS011;33951;51.988;5.910;2023-04-24T13:53:53;8.52;;;2.30;;
47513;SDS011;33951;51.988;5.910;2023-04-24T13:56:19;9.27;;;2.55;;
47513;SDS011;33951;51.988;5.910;2023-04-24T13:58:48;7.07;;;2.42;;
47513;SDS011;33951;51.988;5.910;2023-04-24T14:01:17;5.97;;;2.47;;
47513;SDS011;33951;51.988;5.910;2023-04-24T14:03:53;8.65;;;2.40;;
47513;SDS011;33951;51.988;5.910;2023-04-24T14:06:20;9.15;;;2.67;;
47513;SDS011;33951;51.988;5.910;2023-04-24T14:08:54;8.85;;;2.58;;
47513;SDS011;33951;51.988;5.910;2023-04-24T14:11:20;7.40;;;2.40;;
47513;SDS011;33951;51.988;5.910;2023-04-24T14:13:48;9.77;;;2.20;;
47513;SDS011;33951;51.988;5.910;2023-04-24T14:16:18;6.35;;;2.22;;
47513;SDS011;33951;51.988;5.910;2023-04-24T14:18:46;11.15;;;2.97;;
47513;SDS011;33951;51.988;5.910;2023-04-24T14:21:15;10.90;;;2.88;;
47513;SDS011;33951;51.988;5.910;2023-04-24T14:23:46;16.33;;;4.03;;
47513;SDS011;33951;51.988;5.910;2023-04-24T14:26:20;13.55;;;2.78;;
47513;SDS011;33951;51.988;5.910;2023-04-24T14:28:49;13.82;;;3.63;;
47513;SDS011;33951;51.988;5.910;2023-04-24T14:31:27;8.02;;;2.60;;
47513;SDS011;33951;51.988;5.910;2023-04-24T14:34:01;10.93;;;2.72;;
47513;SDS011;33951;51.988;5.910;2023-04-24T14:39:52;11.13;;;3.40;;
47513;SDS011;33951;51.988;5.910;2023-04-24T14:42:21;10.02;;;2.50;;
47513;SDS011;33951;51.988;5.910;2023-04-24T14:45:17;12.07;;;3.00;;
47513;SDS011;33951;51.988;5.910;2023-04-24T14:47:53;11.95;;;2.80;;
47513;SDS011;33951;51.988;5.910;2023-04-24T14:50:34;12.20;;;2.90;;
47513;SDS011;33951;51.988;5.910;2023-04-24T14:53:02;13.48;;;3.00;;
47513;SDS011;33951;51.988;5.910;2023-04-24T14:55:29;13.60;;;3.25;;
47513;SDS011;33951;51.988;5.910;2023-04-24T14:57:57;12.18;;;4.45;;
47513;SDS011;33951;51.988;5.910;2023-04-24T15:00:41;9.40;;;2.80;;
47513;SDS011;33951;51.988;5.910;2023-04-24T15:03:10;11.07;;;2.90;;
47513;SDS011;33951;51.988;5.910;2023-04-24T15:05:54;14.73;;;3.70;;
47513;SDS011;33951;51.988;5.910;2023-04-24T15:11:36;10.02;;;3.63;;
47513;SDS011;33951;51.988;5.910;2023-04-24T15:17:21;15.55;;;4.22;;
47513;SDS011;33951;51.988;5.910;2023-04-24T15:20:04;11.52;;;3.67;;
47513;SDS011;33951;51.988;5.910;2023-04-24T15:22:46;17.20;;;4.72;;
47513;SDS011;33951;51.988;5.910;2023-04-24T15:25:42;10.43;;;3.70;;
47513;SDS011;33951;51.988;5.910;2023-04-24T15:28:21;14.73;;;3.38;;
47513;SDS011;33951;51.988;5.910;2023-04-24T15:31:16;11.63;;;3.83;;
47513;SDS011;33951;51.988;5.910;2023-04-24T15:34:09;10.38;;;3.30;;
47513;SDS011;33951;51.988;5.910;2023-04-24T15:37:20;12.55;;;3.15;;
47513;SDS011;33951;51.988;5.910;2023-04-24T15:40:06;14.43;;;3.40;;
47513;SDS011;33951;51.988;5.910;2023-04-24T15:49:24;13.00;;;4.00;;
47513;SDS011;33951;51.988;5.910;2023-04-24T15:52:01;11.75;;;3.22;;
47513;SDS011;33951;51.988;5.910;2023-04-24T15:55:14;11.07;;;2.92;;
47513;SDS011;33951;51.988;5.910;2023-04-24T15:58:15;14.18;;;3.92;;
47513;SDS011;33951;51.988;5.910;2023-04-24T16:00:54;12.05;;;3.58;;
47513;SDS011;33951;51.988;5.910;2023-04-24T16:03:44;18.50;;;4.50;;
47513;SDS011;33951;51.988;5.910;2023-04-24T16:06:52;11.07;;;3.35;;
47513;SDS011;33951;51.988;5.910;2023-04-24T16:13:21;8.65;;;3.15;;
47513;SDS011;33951;51.988;5.910;2023-04-24T16:19:58;13.65;;;4.30;;
47513;SDS011;33951;51.988;5.910;2023-04-24T16:23:19;14.45;;;3.72;;
47513;SDS011;33951;51.988;5.910;2023-04-24T16:30:04;21.92;;;5.43;;
47513;SDS011;33951;51.988;5.910;2023-04-24T16:36:27;19.00;;;4.68;;
47513;SDS011;33951;51.988;5.910;2023-04-24T16:39:38;10.57;;;4.32;;
47513;SDS011;33951;51.988;5.910;2023-04-24T17:06:59;7.78;;;3.65;;
47513;SDS011;33951;51.988;5.910;2023-04-24T17:09:47;9.30;;;3.72;;
47513;SDS011;33951;51.988;5.910;2023-04-24T17:22:56;12.07;;;3.97;;
47513;SDS011;33951;51.988;5.910;2023-04-24T17:26:30;14.02;;;4.45;;
47513;SDS011;33951;51.988;5.910;2023-04-24T17:36:38;16.00;;;3.92;;
47513;SDS011;33951;51.988;5.910;2023-04-24T19:27:13;33.10;;;7.45;;
47513;SDS011;33951;51.988;5.910;2023-04-24T19:45:35;23.13;;;5.20;;
47513;SDS011;33951;51.988;5.910;2023-04-24T21:00:08;12.43;;;4.40;;
47513;SDS011;33951;51.988;5.910;2023-04-24T21:23:10;14.63;;;3.92;;
47513;SDS011;33951;51.988;5.910;2023-04-24T22:28:18;9.27;;;3.08;;
